Aviation Digital Data Service (ADDS)

Output produced by METARs form (1837 UTC 19 August 2019)
found at http://www.aviationweather.gov/metar/data/
 
Forecast for: LGTS (THESSALONIKI/MIK, GR)
Text: TAF LGTS 191700Z 1918/2018 18012KT 9999 FEW025
Forecast period: 1800 UTC 19 August 2019 to 1800 UTC 20 August 2019
Forecast type: FROM: standard forecast or significant change
Winds: from the S (180 degrees) at 14 MPH (12 knots; 6.2 m/s)
Visibility: 6 or more miles 10+ km)
Ceiling: at least 12,000 feet AGL
Clouds: few clouds at 2500 feet AGL
Weather: no significant weather forecast for this period
Text: BECMG 1918/1920 VRB03KT
Forecast period: 1800 UTC 19 August 2019 to 1000 UTC 20 August 2019
Forecast type: BECOMING: Conditions expected to become as follows by 2000 UTC 19 August 2019
Winds: variable direction winds at 3 MPH (3 knots; 1.5 m/s)
Visibility: 6 or more miles 10+ km)
Ceiling: at least 12,000 feet AGL
Clouds: few clouds at 2500 feet AGL
Weather: no significant weather forecast for this period
Text: BECMG 2010/2012 18012KT
Forecast period: 1000 to 1800 UTC 20 August 2019
Forecast type: BECOMING: Conditions expected to become as follows by 1200 UTC 20 August 2019
Winds: from the S (180 degrees) at 14 MPH (12 knots; 6.2 m/s)
Visibility: 6 or more miles 10+ km)
Ceiling: at least 12,000 feet AGL
Clouds: few clouds at 2500 feet AGL
Weather: no significant weather forecast for this period